createdAt,value
2023-01-20T12:16:25.466Z,11.27
2023-01-20T12:43:15.543Z,12.50
2023-01-20T14:23:30.422Z,17.15
2023-01-20T14:24:46.453Z,19.48
2023-01-20T14:25:58.341Z,35.90
2023-01-20T14:27:19.008Z,35.67
2023-01-20T14:28:23.560Z,22.05
2023-01-20T14:29:28.529Z,21.20
2023-01-20T14:30:30.550Z,16.05
2023-01-20T14:31:37.638Z,15.30
2023-01-20T14:32:39.575Z,21.70
2023-01-20T14:33:45.130Z,34.80
2023-01-20T14:34:47.413Z,37.47
2023-01-20T21:39:43.286Z,37.92
2023-01-20T21:40:59.909Z,38.13
2023-01-20T21:42:01.820Z,34.30
2023-01-20T21:43:22.586Z,36.65
2023-01-20T21:44:32.411Z,33.97
2023-01-20T21:45:34.246Z,35.15
2023-01-20T21:46:39.810Z,36.42
2023-01-20T21:47:41.933Z,37.22
2023-01-20T21:49:02.151Z,35.70
2023-01-20T21:50:23.118Z,35.00
2023-01-20T21:51:43.378Z,34.97
2023-01-20T21:52:45.552Z,38.83
2023-01-20T21:53:47.471Z,34.47
2023-01-20T21:54:49.638Z,33.33
2023-01-20T21:55:51.449Z,34.47
2023-01-20T21:56:53.239Z,33.08
2023-01-20T21:57:56.389Z,34.13
2023-01-20T21:58:58.110Z,33.70
2023-01-20T22:00:01.195Z,32.53
2023-01-20T22:01:03.206Z,34.55
2023-01-20T22:02:06.080Z,33.75
2023-01-20T22:03:07.960Z,34.55
2023-01-20T22:04:09.845Z,30.05
2023-01-20T22:05:13.444Z,33.40
2023-01-20T22:06:16.945Z,30.58
2023-01-20T22:07:22.464Z,33.42
2023-01-20T22:08:24.612Z,29.13
2023-01-20T22:09:26.446Z,28.95
2023-01-20T22:10:31.237Z,30.77
2023-01-20T22:11:33.011Z,32.47
2023-01-20T22:12:35.995Z,28.08
2023-01-20T22:13:37.969Z,28.42
2023-01-20T22:14:40.060Z,27.38
2023-01-20T22:15:41.822Z,31.48
2023-01-20T22:16:45.089Z,28.85
2023-01-20T22:17:47.893Z,31.83
2023-01-20T22:18:50.591Z,31.85
2023-01-20T22:19:52.495Z,32.65
2023-01-20T22:20:54.374Z,33.78
2023-01-20T22:21:57.030Z,30.10
2023-01-20T22:22:58.808Z,30.45
2023-01-20T22:24:02.909Z,30.05
2023-01-20T22:25:05.053Z,31.98
2023-01-20T22:26:07.147Z,28.88
2023-01-20T22:27:08.973Z,35.45
2023-01-20T22:28:10.965Z,29.75
2023-01-20T22:29:12.974Z,31.27
2023-01-20T22:30:15.245Z,31.17
2023-01-20T22:31:23.980Z,28.45
2023-01-20T22:32:25.990Z,33.33
2023-01-20T22:33:27.779Z,28.88
2023-01-20T22:34:29.739Z,32.30
2023-01-20T22:35:31.453Z,31.75
2023-01-20T22:36:34.136Z,29.42
2023-01-20T22:37:36.041Z,27.10
2023-01-20T22:38:38.049Z,27.17
2023-01-20T22:39:39.767Z,26.92
2023-01-20T22:40:41.477Z,25.80
2023-01-20T22:41:43.412Z,28.33
2023-01-20T22:42:45.891Z,30.85
2023-01-20T22:43:48.393Z,28.58
2023-01-20T22:44:50.262Z,28.98
2023-01-20T22:45:58.964Z,29.83
2023-01-20T22:47:00.742Z,31.23
2023-01-20T22:48:02.758Z,30.77
2023-01-20T22:49:04.595Z,30.38
2023-01-20T22:50:09.429Z,28.65
2023-01-20T22:51:16.811Z,27.15
2023-01-20T22:52:19.085Z,27.77
2023-01-20T22:53:21.200Z,27.98
2023-01-20T22:54:23.279Z,26.55
2023-01-20T22:55:27.406Z,25.85
2023-01-20T22:56:32.005Z,27.50
2023-01-20T22:57:34.088Z,27.25
2023-01-20T22:58:37.549Z,30.20
2023-01-20T22:59:39.799Z,28.42
2023-01-20T23:00:42.854Z,29.25
2023-01-20T23:01:44.680Z,27.33
2023-01-20T23:02:46.470Z,25.52
2023-01-20T23:03:48.693Z,26.45
2023-01-20T23:04:52.420Z,24.50
2023-01-20T23:05:59.399Z,23.52
2023-01-20T23:07:01.226Z,27.88
2023-01-20T23:08:03.475Z,25.40
2023-01-20T23:09:11.090Z,23.20
2023-01-20T23:10:32.889Z,30.25
2023-01-20T23:11:36.554Z,29.42
2023-01-20T23:12:38.553Z,31.02
2023-01-20T23:13:41.231Z,25.23
2023-01-20T23:15:01.417Z,28.33
2023-01-20T23:16:04.754Z,25.70
2023-01-20T23:17:06.667Z,24.92
2023-01-20T23:18:09.758Z,29.45
2023-01-20T23:19:12.637Z,25.40
2023-01-20T23:20:15.209Z,25.75
2023-01-20T23:21:17.834Z,25.05
2023-01-20T23:22:20.032Z,22.98
2023-01-20T23:23:22.801Z,25.77
2023-01-20T23:24:24.727Z,24.00
2023-01-20T23:25:28.207Z,23.48
2023-01-20T23:26:31.569Z,24.38
2023-01-20T23:27:33.324Z,22.58
2023-01-20T23:28:35.269Z,21.88
2023-01-20T23:29:37.413Z,22.40
2023-01-20T23:30:40.198Z,21.48
2023-01-20T23:31:42.076Z,20.27
2023-01-20T23:32:45.082Z,16.52
2023-01-20T23:33:47.405Z,15.10
2023-01-20T23:34:49.160Z,14.10
2023-01-20T23:35:51.248Z,14.38
2023-01-20T23:36:53.116Z,15.88
2023-01-20T23:37:55.375Z,13.35
2023-01-20T23:38:57.765Z,14.07
2023-01-20T23:39:59.621Z,12.52
2023-01-20T23:41:02.357Z,14.00
2023-01-20T23:42:04.222Z,12.73
2023-01-20T23:43:05.975Z,14.05
2023-01-20T23:44:09.617Z,13.50
2023-01-20T23:45:12.066Z,14.43
2023-01-20T23:46:14.014Z,12.20
2023-01-20T23:47:15.865Z,11.05
2023-01-20T23:48:18.213Z,11.88
2023-01-20T23:49:22.508Z,11.88
2023-01-20T23:50:24.695Z,10.00
2023-01-20T23:51:26.618Z,8.82
2023-01-20T23:52:28.821Z,8.60
2023-01-20T23:53:32.214Z,8.75
2023-01-20T23:54:33.959Z,7.82
2023-01-20T23:55:38.039Z,6.97
2023-01-20T23:56:40.207Z,6.95
2023-01-20T23:57:42.173Z,7.15
2023-01-20T23:58:44.697Z,7.40
2023-01-20T23:59:46.891Z,7.40
